sensor_id;sensor_type;location;lat;lon;timestamp;P1;durP1;ratioP1;P2;durP2;ratioP2
75914;SDS011;64593;51.050;13.780;2023-10-19T06:06:01;41.03;;;26.67;;
75914;SDS011;64593;51.050;13.780;2023-10-19T06:11:03;30.63;;;19.00;;
75914;SDS011;64593;51.050;13.780;2023-10-19T06:16:10;45.90;;;26.40;;
75914;SDS011;64593;51.050;13.780;2023-10-19T06:21:12;41.65;;;25.67;;
75914;SDS011;64593;51.050;13.780;2023-10-19T06:26:15;36.03;;;20.88;;
75914;SDS011;64593;51.050;13.780;2023-10-19T06:31:17;44.28;;;29.23;;
75914;SDS011;64593;51.050;13.780;2023-10-19T06:36:22;38.55;;;24.35;;
75914;SDS011;64593;51.050;13.780;2023-10-19T06:46:31;46.78;;;29.65;;
75914;SDS011;64593;51.050;13.780;2023-10-19T06:51:35;40.15;;;26.65;;
75914;SDS011;64593;51.050;13.780;2023-10-19T06:56:44;40.92;;;26.58;;
75914;SDS011;64593;51.050;13.780;2023-10-19T07:01:48;40.72;;;25.40;;
75914;SDS011;64593;51.050;13.780;2023-10-19T07:06:55;45.58;;;26.27;;
75914;SDS011;64593;51.050;13.780;2023-10-19T07:11:57;47.60;;;26.25;;
75914;SDS011;64593;51.050;13.780;2023-10-19T07:17:01;41.97;;;25.27;;
75914;SDS011;64593;51.050;13.780;2023-10-19T07:22:08;43.33;;;24.92;;
75914;SDS011;64593;51.050;13.780;2023-10-19T07:27:14;38.97;;;24.13;;
75914;SDS011;64593;51.050;13.780;2023-10-19T07:32:42;40.97;;;28.95;;
75914;SDS011;64593;51.050;13.780;2023-10-19T07:37:47;46.47;;;30.83;;
75914;SDS011;64593;51.050;13.780;2023-10-19T07:42:50;46.75;;;27.60;;
75914;SDS011;64593;51.050;13.780;2023-10-19T07:47:58;45.05;;;32.85;;
75914;SDS011;64593;51.050;13.780;2023-10-19T07:53:07;44.90;;;27.75;;
75914;SDS011;64593;51.050;13.780;2023-10-19T07:58:10;38.50;;;25.10;;
75914;SDS011;64593;51.050;13.780;2023-10-19T08:03:12;42.00;;;26.20;;
75914;SDS011;64593;51.050;13.780;2023-10-19T08:08:22;34.58;;;20.60;;
75914;SDS011;64593;51.050;13.780;2023-10-19T08:18:37;38.13;;;24.50;;
75914;SDS011;64593;51.050;13.780;2023-10-19T08:23:45;30.60;;;19.77;;
75914;SDS011;64593;51.050;13.780;2023-10-19T08:28:52;41.42;;;27.83;;
75914;SDS011;64593;51.050;13.780;2023-10-19T08:33:54;40.78;;;32.35;;
75914;SDS011;64593;51.050;13.780;2023-10-19T08:38:58;38.00;;;21.10;;
75914;SDS011;64593;51.050;13.780;2023-10-19T08:44:06;35.42;;;23.52;;
75914;SDS011;64593;51.050;13.780;2023-10-19T08:49:22;38.95;;;24.85;;
75914;SDS011;64593;51.050;13.780;2023-10-19T08:54:30;31.48;;;22.50;;
75914;SDS011;64593;51.050;13.780;2023-10-19T08:59:35;34.50;;;24.08;;
75914;SDS011;64593;51.050;13.780;2023-10-19T09:04:43;36.28;;;25.00;;
75914;SDS011;64593;51.050;13.780;2023-10-19T09:09:45;29.13;;;20.02;;
75914;SDS011;64593;51.050;13.780;2023-10-19T09:14:48;13.88;;;9.27;;
75914;SDS011;64593;51.050;13.780;2023-10-19T09:19:51;25.77;;;17.05;;
75914;SDS011;64593;51.050;13.780;2023-10-19T09:25:20;26.33;;;21.17;;
75914;SDS011;64593;51.050;13.780;2023-10-19T09:30:47;26.83;;;18.00;;
75914;SDS011;64593;51.050;13.780;2023-10-19T09:35:50;24.13;;;15.32;;
75914;SDS011;64593;51.050;13.780;2023-10-19T09:40:57;23.27;;;18.08;;
75914;SDS011;64593;51.050;13.780;2023-10-19T09:46:05;19.20;;;14.50;;
75914;SDS011;64593;51.050;13.780;2023-10-19T09:51:33;17.27;;;12.73;;
75914;SDS011;64593;51.050;13.780;2023-10-19T09:56:37;20.10;;;14.82;;
75914;SDS011;64593;51.050;13.780;2023-10-19T10:07:38;20.80;;;12.23;;
75914;SDS011;64593;51.050;13.780;2023-10-19T10:12:42;23.98;;;14.23;;
75914;SDS011;64593;51.050;13.780;2023-10-19T10:17:44;21.20;;;15.52;;
75914;SDS011;64593;51.050;13.780;2023-10-19T10:28:18;20.75;;;16.05;;
75914;SDS011;64593;51.050;13.780;2023-10-19T10:33:53;24.38;;;16.08;;
75914;SDS011;64593;51.050;13.780;2023-10-19T10:39:02;21.98;;;13.32;;
75914;SDS011;64593;51.050;13.780;2023-10-19T10:44:07;26.00;;;19.10;;
75914;SDS011;64593;51.050;13.780;2023-10-19T10:49:09;23.23;;;15.25;;
75914;SDS011;64593;51.050;13.780;2023-10-19T10:54:10;24.88;;;17.08;;
75914;SDS011;64593;51.050;13.780;2023-10-19T10:59:40;26.13;;;13.73;;
75914;SDS011;64593;51.050;13.780;2023-10-19T11:04:43;26.85;;;19.40;;
75914;SDS011;64593;51.050;13.780;2023-10-19T11:09:46;26.48;;;17.02;;
75914;SDS011;64593;51.050;13.780;2023-10-19T11:14:52;26.23;;;18.17;;
75914;SDS011;64593;51.050;13.780;2023-10-19T11:20:24;20.92;;;13.95;;
75914;SDS011;64593;51.050;13.780;2023-10-19T11:25:57;27.63;;;18.10;;
75914;SDS011;64593;51.050;13.780;2023-10-19T11:31:12;27.48;;;18.88;;
75914;SDS011;64593;51.050;13.780;2023-10-19T11:36:15;24.25;;;16.13;;
75914;SDS011;64593;51.050;13.780;2023-10-19T11:41:20;31.15;;;18.52;;
75914;SDS011;64593;51.050;13.780;2023-10-19T11:46:46;28.15;;;17.38;;
75914;SDS011;64593;51.050;13.780;2023-10-19T11:52:13;27.20;;;16.42;;
75914;SDS011;64593;51.050;13.780;2023-10-19T11:57:16;27.92;;;16.73;;
75914;SDS011;64593;51.050;13.780;2023-10-19T12:02:18;25.45;;;17.05;;
75914;SDS011;64593;51.050;13.780;2023-10-19T12:07:45;24.65;;;16.40;;
75914;SDS011;64593;51.050;13.780;2023-10-19T12:13:12;22.23;;;13.93;;
75914;SDS011;64593;51.050;13.780;2023-10-19T12:19:04;26.08;;;18.40;;
75914;SDS011;64593;51.050;13.780;2023-10-19T12:24:30;26.35;;;17.67;;
75914;SDS011;64593;51.050;13.780;2023-10-19T12:29:32;29.88;;;18.52;;
75914;SDS011;64593;51.050;13.780;2023-10-19T12:34:59;27.65;;;18.52;;
75914;SDS011;64593;51.050;13.780;2023-10-19T12:40:26;25.90;;;16.77;;
75914;SDS011;64593;51.050;13.780;2023-10-19T12:45:55;27.33;;;18.15;;
75914;SDS011;64593;51.050;13.780;2023-10-19T12:50:59;25.80;;;16.52;;
75914;SDS011;64593;51.050;13.780;2023-10-19T12:56:02;27.08;;;17.95;;
75914;SDS011;64593;51.050;13.780;2023-10-19T13:01:04;26.42;;;18.25;;
75914;SDS011;64593;51.050;13.780;2023-10-19T13:06:32;29.17;;;20.75;;
75914;SDS011;64593;51.050;13.780;2023-10-19T13:12:00;26.13;;;16.83;;
75914;SDS011;64593;51.050;13.780;2023-10-19T13:17:27;26.48;;;18.92;;
75914;SDS011;64593;51.050;13.780;2023-10-19T13:22:54;24.50;;;17.55;;
75914;SDS011;64593;51.050;13.780;2023-10-19T13:28:23;26.80;;;17.17;;
75914;SDS011;64593;51.050;13.780;2023-10-19T13:33:50;26.42;;;18.35;;
75914;SDS011;64593;51.050;13.780;2023-10-19T13:39:17;27.30;;;16.85;;
75914;SDS011;64593;51.050;13.780;2023-10-19T13:44:43;27.10;;;17.23;;
75914;SDS011;64593;51.050;13.780;2023-10-19T13:50:12;26.42;;;18.65;;
75914;SDS011;64593;51.050;13.780;2023-10-19T13:55:40;25.98;;;17.80;;
75914;SDS011;64593;51.050;13.780;2023-10-19T14:00:44;24.10;;;16.95;;
75914;SDS011;64593;51.050;13.780;2023-10-19T14:05:46;25.00;;;17.15;;
75914;SDS011;64593;51.050;13.780;2023-10-19T14:11:16;24.38;;;18.38;;
75914;SDS011;64593;51.050;13.780;2023-10-19T14:16:43;10.15;;;5.97;;
75914;SDS011;64593;51.050;13.780;2023-10-19T14:22:11;22.30;;;14.63;;
75914;SDS011;64593;51.050;13.780;2023-10-19T14:27:12;28.08;;;19.98;;
75914;SDS011;64593;51.050;13.780;2023-10-19T14:32:15;26.98;;;18.88;;
75914;SDS011;64593;51.050;13.780;2023-10-19T14:37:42;28.42;;;20.95;;
75914;SDS011;64593;51.050;13.780;2023-10-19T14:43:10;31.75;;;20.80;;
75914;SDS011;64593;51.050;13.780;2023-10-19T14:48:37;29.08;;;21.55;;
75914;SDS011;64593;51.050;13.780;2023-10-19T14:53:39;31.45;;;20.50;;
75914;SDS011;64593;51.050;13.780;2023-10-19T14:59:06;27.98;;;18.60;;
75914;SDS011;64593;51.050;13.780;2023-10-19T15:04:08;37.20;;;21.30;;
75914;SDS011;64593;51.050;13.780;2023-10-19T15:09:34;28.58;;;19.00;;
75914;SDS011;64593;51.050;13.780;2023-10-19T15:15:02;37.67;;;19.33;;
75914;SDS011;64593;51.050;13.780;2023-10-19T15:20:05;28.38;;;19.00;;
75914;SDS011;64593;51.050;13.780;2023-10-19T15:30:35;33.03;;;19.17;;
75914;SDS011;64593;51.050;13.780;2023-10-19T15:35:39;30.52;;;21.13;;
75914;SDS011;64593;51.050;13.780;2023-10-19T15:40:42;33.40;;;20.90;;
75914;SDS011;64593;51.050;13.780;2023-10-19T15:45:44;29.90;;;20.02;;
75914;SDS011;64593;51.050;13.780;2023-10-19T15:51:12;33.63;;;21.33;;
75914;SDS011;64593;51.050;13.780;2023-10-19T15:56:39;30.83;;;20.30;;
75914;SDS011;64593;51.050;13.780;2023-10-19T16:02:05;32.33;;;20.88;;
75914;SDS011;64593;51.050;13.780;2023-10-19T16:07:33;34.13;;;22.00;;
75914;SDS011;64593;51.050;13.780;2023-10-19T16:12:34;37.17;;;22.63;;
75914;SDS011;64593;51.050;13.780;2023-10-19T16:17:37;40.08;;;23.70;;
75914;SDS011;64593;51.050;13.780;2023-10-19T16:22:47;39.33;;;23.45;;
75914;SDS011;64593;51.050;13.780;2023-10-19T16:28:14;37.30;;;24.23;;
75914;SDS011;64593;51.050;13.780;2023-10-19T16:33:16;38.03;;;22.55;;
75914;SDS011;64593;51.050;13.780;2023-10-19T16:38:18;35.00;;;23.17;;
75914;SDS011;64593;51.050;13.780;2023-10-19T16:43:21;40.22;;;24.40;;
75914;SDS011;64593;51.050;13.780;2023-10-19T16:48:23;45.05;;;23.88;;
75914;SDS011;64593;51.050;13.780;2023-10-19T16:53:25;41.08;;;25.55;;
75914;SDS011;64593;51.050;13.780;2023-10-19T16:58:29;44.88;;;27.70;;
75914;SDS011;64593;51.050;13.780;2023-10-19T17:03:55;48.08;;;26.80;;
75914;SDS011;64593;51.050;13.780;2023-10-19T17:09:22;45.78;;;27.80;;
75914;SDS011;64593;51.050;13.780;2023-10-19T17:19:29;44.35;;;25.27;;
75914;SDS011;64593;51.050;13.780;2023-10-19T17:29:34;45.97;;;29.02;;
75914;SDS011;64593;51.050;13.780;2023-10-19T17:35:00;43.90;;;29.58;;
75914;SDS011;64593;51.050;13.780;2023-10-19T17:40:27;43.63;;;25.25;;
75914;SDS011;64593;51.050;13.780;2023-10-19T17:45:30;45.05;;;27.85;;
75914;SDS011;64593;51.050;13.780;2023-10-19T17:50:32;49.63;;;32.35;;
75914;SDS011;64593;51.050;13.780;2023-10-19T17:55:36;44.25;;;28.25;;
75914;SDS011;64593;51.050;13.780;2023-10-19T18:01:04;46.00;;;27.10;;
75914;SDS011;64593;51.050;13.780;2023-10-19T18:06:32;44.13;;;27.45;;
75914;SDS011;64593;51.050;13.780;2023-10-19T18:11:59;44.65;;;26.98;;
75914;SDS011;64593;51.050;13.780;2023-10-19T18:17:00;45.33;;;27.77;;
75914;SDS011;64593;51.050;13.780;2023-10-19T18:22:27;49.97;;;30.45;;
75914;SDS011;64593;51.050;13.780;2023-10-19T18:27:29;50.50;;;26.05;;
75914;SDS011;64593;51.050;13.780;2023-10-19T18:32:56;53.78;;;28.20;;
75914;SDS011;64593;51.050;13.780;2023-10-19T18:38:23;48.55;;;26.58;;
75914;SDS011;64593;51.050;13.780;2023-10-19T18:43:26;48.15;;;26.40;;
75914;SDS011;64593;51.050;13.780;2023-10-19T18:48:55;43.15;;;24.40;;
75914;SDS011;64593;51.050;13.780;2023-10-19T18:54:01;46.90;;;25.27;;
75914;SDS011;64593;51.050;13.780;2023-10-19T18:59:05;46.45;;;24.75;;
75914;SDS011;64593;51.050;13.780;2023-10-19T19:04:08;43.97;;;24.08;;
75914;SDS011;64593;51.050;13.780;2023-10-19T19:09:12;45.53;;;25.23;;
75914;SDS011;64593;51.050;13.780;2023-10-19T19:14:14;46.25;;;26.20;;
75914;SDS011;64593;51.050;13.780;2023-10-19T19:19:16;45.55;;;27.30;;
75914;SDS011;64593;51.050;13.780;2023-10-19T19:24:19;50.97;;;27.23;;
75914;SDS011;64593;51.050;13.780;2023-10-19T19:29:20;58.47;;;31.38;;
75914;SDS011;64593;51.050;13.780;2023-10-19T19:34:24;55.28;;;29.35;;
75914;SDS011;64593;51.050;13.780;2023-10-19T19:39:51;48.15;;;27.38;;
75914;SDS011;64593;51.050;13.780;2023-10-19T19:44:53;57.95;;;29.35;;
75914;SDS011;64593;51.050;13.780;2023-10-19T19:49:57;54.08;;;29.45;;
75914;SDS011;64593;51.050;13.780;2023-10-19T19:54:59;54.38;;;30.45;;
75914;SDS011;64593;51.050;13.780;2023-10-19T20:00:26;54.33;;;29.77;;
75914;SDS011;64593;51.050;13.780;2023-10-19T20:05:57;54.58;;;30.08;;
75914;SDS011;64593;51.050;13.780;2023-10-19T20:11:25;57.38;;;29.95;;
75914;SDS011;64593;51.050;13.780;2023-10-19T20:16:27;49.20;;;28.02;;
75914;SDS011;64593;51.050;13.780;2023-10-19T20:21:29;58.25;;;30.60;;
75914;SDS011;64593;51.050;13.780;2023-10-19T20:26:30;62.20;;;30.35;;
75914;SDS011;64593;51.050;13.780;2023-10-19T20:31:57;56.55;;;29.15;;
75914;SDS011;64593;51.050;13.780;2023-10-19T20:37:24;65.00;;;33.63;;
75914;SDS011;64593;51.050;13.780;2023-10-19T20:42:51;61.72;;;34.35;;
75914;SDS011;64593;51.050;13.780;2023-10-19T20:48:23;63.95;;;35.63;;
75914;SDS011;64593;51.050;13.780;2023-10-19T20:53:25;67.28;;;37.30;;
75914;SDS011;64593;51.050;13.780;2023-10-19T20:58:52;67.47;;;38.85;;
75914;SDS011;64593;51.050;13.780;2023-10-19T21:04:20;62.78;;;36.63;;
75914;SDS011;64593;51.050;13.780;2023-10-19T21:09:22;69.80;;;38.35;;
75914;SDS011;64593;51.050;13.780;2023-10-19T21:14:49;66.15;;;38.13;;
75914;SDS011;64593;51.050;13.780;2023-10-19T21:19:51;68.60;;;41.08;;
75914;SDS011;64593;51.050;13.780;2023-10-19T21:24:53;64.70;;;36.67;;
75914;SDS011;64593;51.050;13.780;2023-10-19T21:29:55;69.30;;;38.33;;
75914;SDS011;64593;51.050;13.780;2023-10-19T21:35:21;71.82;;;38.90;;
75914;SDS011;64593;51.050;13.780;2023-10-19T21:40:23;68.03;;;38.70;;
75914;SDS011;64593;51.050;13.780;2023-10-19T21:45:27;72.20;;;37.60;;
75914;SDS011;64593;51.050;13.780;2023-10-19T21:50:57;67.93;;;37.97;;
75914;SDS011;64593;51.050;13.780;2023-10-19T21:55:59;64.50;;;37.13;;
